createdAt,value
2023-04-15T00:10:36.344Z,0.5819397993311036
2023-04-15T00:16:58.703Z,0.2140468227424749
2023-04-15T00:23:19.747Z,0.3745819397993311
2023-04-15T00:29:54.253Z,0.5819397993311036
2023-04-15T00:38:31.313Z,0.18729096989966554
2023-04-15T00:55:01.117Z,0.3745819397993311
2023-04-15T01:01:24.076Z,0.29431438127090304
2023-04-15T01:17:29.846Z,0.31438127090301005
2023-04-15T01:23:52.311Z,0.22742474916387959
2023-04-15T01:30:15.179Z,0.3277591973244147
2023-04-15T01:38:24.416Z,0.5618729096989966
2023-04-15T01:44:45.922Z,0.3745819397993311
2023-04-15T01:54:11.859Z,0.939799331103679
2023-04-15T02:00:32.746Z,0.17391304347826086
2023-04-15T02:06:54.889Z,0.46488294314381273
2023-04-15T02:16:29.379Z,0.10702341137123746
2023-04-15T02:22:52.061Z,0.6889632107023411
2023-04-15T02:29:14.964Z,0.6488294314381271
2023-04-15T02:35:35.043Z,0.5384615384615384
2023-04-15T02:41:57.509Z,0.3277591973244147
2023-04-15T02:48:21.323Z,0.5284280936454849
2023-04-15T02:54:48.521Z,0.7023411371237458
2023-04-15T03:01:10.177Z,0.3210702341137124
2023-04-15T03:08:58.332Z,0.3010033444816054
2023-04-15T03:15:20.931Z,0.39464882943143814
2023-04-15T03:21:42.003Z,0.33444816053511706
2023-04-15T03:33:42.270Z,0.8093645484949833
2023-04-15T03:40:03.818Z,0.24749163879598662
2023-04-15T03:46:26.311Z,0.6421404682274248
2023-04-15T03:52:51.405Z,0.49498327759197325
2023-04-15T03:59:16.672Z,0.5150501672240803
2023-04-15T04:05:39.182Z,0.5484949832775919
2023-04-15T04:18:19.300Z,0.6220735785953178
2023-04-15T04:24:40.241Z,0.2809364548494983
2023-04-15T04:40:50.385Z,0.8896321070234113
2023-04-15T04:47:11.361Z,0.5819397993311036
2023-04-15T04:53:32.074Z,0.7290969899665551
2023-04-15T04:59:55.924Z,0.6755852842809364
2023-04-15T05:12:50.037Z,0.9163879598662207
2023-04-15T05:22:53.832Z,0.4882943143812709
2023-04-15T05:44:00.617Z,0.7692307692307693
2023-04-15T05:53:20.551Z,0.8963210702341137
2023-04-15T05:59:48.639Z,0.7491638795986622
2023-04-15T06:13:10.896Z,0.7558528428093646
2023-04-15T06:25:56.000Z,0.7224080267558528
2023-04-15T06:36:45.706Z,0.5016722408026756
2023-04-15T06:43:51.197Z,0.36789297658862874
2023-04-15T06:50:53.113Z,0.6287625418060201
2023-04-15T06:57:46.380Z,0.6454849498327759
2023-04-15T07:07:07.065Z,0.14046822742474915
2023-04-15T07:13:28.497Z,0.39464882943143814
2023-04-15T07:19:50.288Z,0.5551839464882943
2023-04-15T07:26:12.273Z,0.3745819397993311
2023-04-15T07:37:40.581Z,0.3879598662207358
2023-04-15T07:44:02.694Z,0.49498327759197325
2023-04-15T07:50:27.402Z,0.23411371237458195
2023-04-15T07:56:51.265Z,0.23411371237458195
2023-04-15T08:03:13.628Z,0.4414715719063545
2023-04-15T08:09:36.282Z,0.7157190635451505
2023-04-15T08:21:41.407Z,0.2809364548494983
2023-04-15T08:28:05.493Z,0.2608695652173913
2023-04-15T08:34:28.440Z,0.0
2023-04-15T08:40:52.403Z,0.44816053511705684
2023-04-15T08:47:15.558Z,0.3612040133779264
2023-04-15T08:53:38.340Z,0.17391304347826086
2023-04-15T09:00:04.824Z,0.28762541806020064
2023-04-15T09:06:31.480Z,0.046822742474916385
2023-04-15T09:17:52.040Z,0.08695652173913043
2023-04-15T09:26:03.149Z,0.28762541806020064
2023-04-15T09:32:28.629Z,0.35451505016722407
2023-04-15T09:47:10.885Z,0.35451505016722407
2023-04-15T10:00:29.175Z,0.1806020066889632
2023-04-15T10:06:49.758Z,0.1605351170568562
2023-04-15T10:13:10.117Z,0.26755852842809363
2023-04-15T10:19:31.624Z,0.5284280936454849
2023-04-15T10:25:58.667Z,0.0
2023-04-15T10:32:19.630Z,0.3010033444816054
2023-04-15T10:38:40.856Z,0.3277591973244147
2023-04-15T10:53:23.084Z,0.46153846153846156
2023-04-15T10:59:44.416Z,0.18729096989966554
2023-04-15T11:06:05.606Z,0.5351170568561873
2023-04-15T11:20:04.803Z,0.802675585284281
2023-04-15T11:26:25.624Z,0.5418060200668896
2023-04-15T11:32:47.125Z,0.47491638795986624
2023-04-15T11:45:22.814Z,0.8093645484949833
2023-04-15T11:51:43.809Z,1.2441471571906355
2023-04-15T11:58:05.198Z,0.9665551839464883
2023-04-15T12:04:26.322Z,1.214046822742475
2023-04-15T12:10:47.824Z,0.9230769230769231
2023-04-15T12:17:09.478Z,1.8762541806020068
2023-04-15T12:23:30.473Z,1.3311036789297659
2023-04-15T12:35:07.331Z,1.9063545150501673
2023-04-15T12:41:28.847Z,3.1137123745819397
2023-04-15T12:47:50.430Z,2.4782608695652173
2023-04-15T12:59:14.657Z,1.9866220735785953
2023-04-15T13:10:04.312Z,1.8963210702341138
2023-04-15T13:16:26.668Z,2.1237458193979935
2023-04-15T13:22:48.775Z,2.2240802675585285
2023-04-15T13:29:10.639Z,2.0468227424749164
2023-04-15T13:40:42.612Z,1.8729096989966556
2023-04-15T14:02:59.443Z,1.391304347826087
2023-04-15T14:09:21.352Z,1.3043478260869565
2023-04-15T14:15:43.242Z,1.2909698996655519
2023-04-15T14:24:29.762Z,1.4046822742474916
2023-04-15T14:30:51.511Z,1.7759197324414715
2023-04-15T14:39:47.648Z,1.7591973244147157
2023-04-15T14:46:13.230Z,1.7290969899665551
2023-04-15T14:52:40.288Z,1.6020066889632107
2023-04-15T14:59:09.621Z,1.3645484949832776
2023-04-15T15:12:14.905Z,1.3210702341137124
2023-04-15T15:18:40.900Z,1.765886287625418
2023-04-15T15:29:53.638Z,1.8160535117056855
2023-04-15T15:36:16.333Z,0.9364548494983278
2023-04-15T15:42:38.752Z,1.0100334448160535
2023-04-15T15:49:04.108Z,1.7391304347826086
2023-04-15T15:55:27.896Z,1.2775919732441472
2023-04-15T16:01:50.878Z,1.4882943143812708
2023-04-15T16:08:13.499Z,1.0836120401337792
2023-04-15T16:14:36.926Z,0.7558528428093646
2023-04-15T16:21:03.628Z,0.9765886287625418
2023-04-15T16:28:26.470Z,0.725752508361204
2023-04-15T16:38:09.113Z,0.862876254180602
2023-04-15T16:45:42.541Z,0.6020066889632107
2023-04-15T16:58:00.946Z,0.6354515050167224
2023-04-15T17:06:53.915Z,0.7558528428093646
2023-04-15T17:14:00.979Z,0.8394648829431438
2023-04-15T17:20:32.658Z,0.7959866220735786
2023-04-15T17:27:02.640Z,0.5083612040133779
2023-04-15T17:34:01.059Z,0.7357859531772575
2023-04-15T17:40:28.965Z,1.4615384615384615
2023-04-15T17:47:08.819Z,0.7224080267558528
2023-04-15T18:02:03.099Z,0.9565217391304348
2023-04-15T18:08:26.297Z,1.1973244147157192
2023-04-15T18:14:55.079Z,0.4816053511705686
2023-04-15T18:21:21.667Z,0.8896321070234113
2023-04-15T18:29:01.969Z,0.6153846153846154
2023-04-15T18:35:30.165Z,0.5886287625418061
2023-04-15T18:45:51.553Z,0.9866220735785953
2023-04-15T18:52:16.135Z,0.5953177257525084
2023-04-15T18:59:10.248Z,0.7959866220735786
2023-04-15T19:05:57.315Z,1.2441471571906355
2023-04-15T19:12:21.690Z,0.7290969899665551
2023-04-15T19:18:48.404Z,0.9765886287625418
2023-04-15T19:25:12.375Z,0.6488294314381271
2023-04-15T19:31:37.201Z,0.9163879598662207
2023-04-15T19:45:03.357Z,0.8762541806020067
2023-04-15T19:51:30.002Z,0.9364548494983278
2023-04-15T19:59:46.191Z,0.7357859531772575
2023-04-15T20:08:09.433Z,0.9765886287625418
2023-04-15T20:15:19.484Z,0.8695652173913043
2023-04-15T20:21:47.723Z,0.6555183946488294
2023-04-15T20:28:19.791Z,0.6120401337792643
2023-04-15T20:34:40.890Z,0.8060200668896321
2023-04-15T20:43:44.890Z,1.2909698996655519
2023-04-15T20:50:09.264Z,0.8762541806020067
2023-04-15T20:56:33.860Z,0.8160535117056856
2023-04-15T21:07:36.563Z,0.6488294314381271
2023-04-15T21:14:01.263Z,0.5217391304347826
2023-04-15T21:20:24.922Z,0.782608695652174
2023-04-15T21:26:46.461Z,1.2508361204013378
2023-04-15T21:39:12.507Z,1.2508361204013378
2023-04-15T21:45:35.370Z,1.585284280936455
2023-04-15T21:51:55.371Z,1.2508361204013378
2023-04-15T21:58:15.370Z,0.6822742474916388
2023-04-15T22:04:35.564Z,1.0836120401337792
2023-04-15T22:15:41.654Z,0.8093645484949833
2023-04-15T22:24:52.691Z,1.0735785953177257
2023-04-15T22:31:11.873Z,0.9498327759197325
2023-04-15T22:38:12.958Z,0.9832775919732442
2023-04-15T22:46:28.073Z,0.6086956521739131
2023-04-15T22:52:48.417Z,0.7625418060200669
2023-04-15T23:01:25.531Z,1.0033444816053512
2023-04-15T23:07:44.815Z,0.862876254180602
2023-04-15T23:14:04.658Z,1.0167224080267558
2023-04-15T23:20:25.207Z,1.1438127090301002
2023-04-15T23:28:51.899Z,0.882943143812709
2023-04-15T23:40:41.351Z,0.9698996655518395
2023-04-15T23:47:03.760Z,0.9063545150501672
2023-04-15T23:53:25.453Z,0.842809364548495
2023-04-15T23:59:49.359Z,1.2909698996655519
